createdAt,value
2023-05-13T00:03:28.552Z,11.05
2023-05-13T00:07:11.352Z,11.02
2023-05-13T00:10:55.453Z,10.97
2023-05-13T00:14:38.174Z,10.96
2023-05-13T00:18:20.859Z,10.97
2023-05-13T00:22:03.527Z,10.97
2023-05-13T00:25:46.238Z,10.95
2023-05-13T00:29:31.483Z,10.96
2023-05-13T00:33:14.169Z,10.92
2023-05-13T00:36:56.817Z,10.90
2023-05-13T00:40:40.789Z,10.88
2023-05-13T00:44:23.641Z,10.86
2023-05-13T00:48:08.408Z,10.88
2023-05-13T00:51:52.847Z,10.88
2023-05-13T00:55:35.654Z,10.88
2023-05-13T00:59:18.299Z,10.89
2023-05-13T01:03:06.849Z,10.90
2023-05-13T01:06:58.093Z,10.93
2023-05-13T01:10:44.607Z,10.90
2023-05-13T01:14:32.281Z,10.89
2023-05-13T01:18:16.850Z,10.83
2023-05-13T01:22:01.167Z,10.84
2023-05-13T01:25:45.182Z,10.83
2023-05-13T01:29:28.086Z,10.82
2023-05-13T01:33:11.423Z,10.83
2023-05-13T01:36:54.148Z,10.82
2023-05-13T01:40:39.395Z,10.78
2023-05-13T01:44:22.281Z,10.78
2023-05-13T01:48:05.234Z,10.83
2023-05-13T01:51:47.977Z,10.84
2023-05-13T01:55:30.664Z,10.82
2023-05-13T01:59:14.690Z,10.79
2023-05-13T02:02:57.483Z,10.77
2023-05-13T02:06:40.155Z,10.78
2023-05-13T02:10:23.065Z,10.75
2023-05-13T02:14:05.906Z,10.74
2023-05-13T02:17:49.990Z,10.74
2023-05-13T02:21:32.724Z,10.72
2023-05-13T02:25:15.400Z,10.72
2023-05-13T02:28:58.063Z,10.72
2023-05-13T02:32:42.809Z,10.69
2023-05-13T02:36:27.024Z,10.68
2023-05-13T02:40:10.840Z,10.67
2023-05-13T02:43:53.507Z,10.64
2023-05-13T02:47:36.182Z,10.62
2023-05-13T02:51:18.808Z,10.61
2023-05-13T02:55:03.016Z,10.60
2023-05-13T02:58:45.759Z,10.60
2023-05-13T03:02:29.113Z,10.62
2023-05-13T03:06:13.030Z,10.63
2023-05-13T03:09:55.822Z,10.62
2023-05-13T03:13:39.876Z,10.60
2023-05-13T03:17:22.764Z,10.60
2023-05-13T03:21:05.848Z,10.59
2023-05-13T03:24:48.526Z,10.57
2023-05-13T03:28:31.200Z,10.56
2023-05-13T03:32:15.211Z,10.54
2023-05-13T03:35:57.903Z,10.53
2023-05-13T03:39:40.638Z,10.52
2023-05-13T03:43:23.321Z,10.55
2023-05-13T03:47:06.608Z,10.57
2023-05-13T03:50:50.949Z,10.56
2023-05-13T03:54:33.599Z,10.54
2023-05-13T03:58:17.441Z,10.54
2023-05-13T04:02:00.246Z,10.55
2023-05-13T04:05:43.010Z,10.54
2023-05-13T04:09:26.999Z,10.51
2023-05-13T04:13:09.672Z,10.53
2023-05-13T04:16:52.357Z,10.53
2023-05-13T04:20:35.306Z,10.53
2023-05-13T04:24:18.001Z,10.51
2023-05-13T04:28:02.065Z,10.52
2023-05-13T04:31:44.778Z,10.52
2023-05-13T04:35:27.526Z,10.49
2023-05-13T04:39:10.931Z,10.51
2023-05-13T04:42:55.015Z,10.52
2023-05-13T04:46:40.443Z,10.51
2023-05-13T04:50:23.363Z,10.50
2023-05-13T04:54:06.707Z,10.50
2023-05-13T04:57:49.380Z,10.45
2023-05-13T05:01:32.037Z,10.50
2023-05-13T05:05:18.200Z,10.52
2023-05-13T05:09:01.287Z,10.57
2023-05-13T05:12:44.007Z,10.55
2023-05-13T05:16:26.695Z,10.54
2023-05-13T05:20:10.514Z,10.54
2023-05-13T05:23:54.609Z,10.54
2023-05-13T05:27:37.312Z,10.50
2023-05-13T05:31:20.114Z,10.42
2023-05-13T05:35:03.958Z,10.42
2023-05-13T05:38:47.381Z,10.42
2023-05-13T05:42:33.427Z,10.43
2023-05-13T05:46:17.344Z,10.43
2023-05-13T05:50:00.164Z,10.42
2023-05-13T05:53:43.407Z,10.43
2023-05-13T05:57:26.122Z,10.47
2023-05-13T06:01:10.431Z,10.48
2023-05-13T06:04:53.151Z,10.55
2023-05-13T06:08:35.896Z,10.60
2023-05-13T06:12:18.569Z,10.62
2023-05-13T06:16:01.317Z,10.58
2023-05-13T06:19:45.368Z,10.65
2023-05-13T06:23:28.058Z,10.69
2023-05-13T06:27:11.399Z,10.71
2023-05-13T06:30:54.486Z,10.72
2023-05-13T06:34:38.348Z,10.82
2023-05-13T06:38:22.458Z,10.86
2023-05-13T06:42:05.788Z,10.89
2023-05-13T06:45:48.855Z,10.91
2023-05-13T06:49:31.710Z,10.96
2023-05-13T06:53:14.490Z,11.01
2023-05-13T06:56:58.533Z,11.04
2023-05-13T07:00:41.933Z,11.06
2023-05-13T07:04:24.764Z,11.14
2023-05-13T07:08:08.360Z,11.23
2023-05-13T07:11:51.025Z,11.33
2023-05-13T07:15:35.067Z,11.34
2023-05-13T07:19:17.879Z,11.31
2023-05-13T07:23:00.578Z,11.34
2023-05-13T07:26:43.217Z,11.37
2023-05-13T07:30:26.012Z,11.40
2023-05-13T07:34:10.071Z,11.39
2023-05-13T07:37:52.793Z,11.41
2023-05-13T07:41:35.472Z,11.39
2023-05-13T07:45:18.174Z,11.37
2023-05-13T07:49:00.870Z,11.37
2023-05-13T07:52:48.936Z,11.40
2023-05-13T07:56:31.637Z,11.41
2023-05-13T08:00:15.541Z,11.35
2023-05-13T08:03:58.493Z,11.41
2023-05-13T08:07:41.430Z,11.45
2023-05-13T08:11:26.254Z,11.46
2023-05-13T08:15:11.885Z,11.48
2023-05-13T08:18:54.602Z,11.47
2023-05-13T08:22:37.538Z,11.51
2023-05-13T08:26:20.251Z,11.55
2023-05-13T08:30:04.624Z,11.56
2023-05-13T08:33:50.325Z,11.54
2023-05-13T08:37:32.937Z,11.52
2023-05-13T08:41:16.480Z,11.57
2023-05-13T08:44:59.393Z,11.62
2023-05-13T08:48:43.546Z,11.66
2023-05-13T08:52:26.674Z,11.69
2023-05-13T08:56:10.129Z,11.70
2023-05-13T08:59:52.860Z,11.73
2023-05-13T09:03:36.320Z,11.77
2023-05-13T09:07:20.418Z,11.76
2023-05-13T09:11:03.108Z,11.73
2023-05-13T09:14:45.905Z,11.70
2023-05-13T09:18:31.798Z,11.72
2023-05-13T09:22:18.399Z,11.83
2023-05-13T09:26:02.537Z,11.89
2023-05-13T09:29:45.172Z,11.93
2023-05-13T09:33:31.451Z,11.94
2023-05-13T09:37:19.025Z,11.92
2023-05-13T09:41:04.242Z,11.88
2023-05-13T09:44:47.889Z,11.88
2023-05-13T09:48:32.370Z,11.83
2023-05-13T09:52:17.919Z,11.84
2023-05-13T09:56:01.659Z,11.67
2023-05-13T09:59:45.703Z,11.65
2023-05-13T10:03:29.588Z,11.81
2023-05-13T10:07:13.152Z,11.99
2023-05-13T10:10:56.564Z,12.11
2023-05-13T10:14:39.911Z,12.24
2023-05-13T10:18:24.896Z,12.35
2023-05-13T10:22:07.750Z,12.40
2023-05-13T10:25:51.946Z,12.42
2023-05-13T10:29:35.571Z,12.53
2023-05-13T10:33:18.672Z,12.58
2023-05-13T10:37:17.296Z,12.66
2023-05-13T10:41:10.451Z,12.64
2023-05-13T10:44:55.418Z,12.60
2023-05-13T10:48:43.092Z,12.55
2023-05-13T10:52:42.501Z,12.54
2023-05-13T10:56:27.009Z,12.64
2023-05-13T11:00:19.984Z,12.76
2023-05-13T11:04:04.145Z,12.89
2023-05-13T11:07:55.819Z,12.91
2023-05-13T11:11:38.909Z,12.86
2023-05-13T11:15:24.346Z,12.91
2023-05-13T11:19:11.505Z,13.01
2023-05-13T11:22:55.660Z,13.07
2023-05-13T11:26:46.573Z,13.13
2023-05-13T11:30:29.394Z,13.24
2023-05-13T11:34:16.305Z,13.28
2023-05-13T11:38:01.711Z,13.34
2023-05-13T11:41:46.625Z,13.35
2023-05-13T11:45:30.600Z,13.32
2023-05-13T11:49:13.390Z,13.33
2023-05-13T11:52:57.237Z,13.27
2023-05-13T11:56:44.209Z,13.26
2023-05-13T12:00:27.589Z,13.31
2023-05-13T12:04:10.317Z,13.35
2023-05-13T12:07:53.674Z,13.39
2023-05-13T12:11:37.330Z,13.43
2023-05-13T12:15:23.075Z,13.52
2023-05-13T12:19:07.238Z,13.61
2023-05-13T12:22:52.780Z,13.63
2023-05-13T12:26:35.524Z,13.65
2023-05-13T12:30:19.286Z,13.60
2023-05-13T12:34:03.457Z,13.64
2023-05-13T12:37:46.078Z,13.70
2023-05-13T12:41:32.628Z,13.76
2023-05-13T12:45:15.897Z,13.79
2023-05-13T12:49:00.517Z,13.83
2023-05-13T12:52:44.590Z,13.83
2023-05-13T12:56:27.406Z,13.83
2023-05-13T13:00:11.351Z,13.81
2023-05-13T13:03:54.119Z,13.78
2023-05-13T13:07:38.095Z,13.77
2023-05-13T13:11:22.135Z,13.74
2023-05-13T13:15:05.461Z,13.48
2023-05-13T13:18:48.238Z,13.34
2023-05-13T13:22:31.082Z,13.24
2023-05-13T13:26:13.807Z,13.16
2023-05-13T13:29:57.876Z,13.14
2023-05-13T13:33:40.557Z,13.14
2023-05-13T13:37:23.240Z,13.16
2023-05-13T13:41:06.200Z,13.15
2023-05-13T13:44:48.927Z,13.18
2023-05-13T13:48:32.977Z,13.21
2023-05-13T13:52:15.709Z,13.23
2023-05-13T13:55:58.459Z,13.32
2023-05-13T13:59:41.169Z,13.40
2023-05-13T14:03:23.950Z,13.59
2023-05-13T14:07:08.068Z,13.86
2023-05-13T14:10:51.310Z,14.18
2023-05-13T14:14:33.997Z,14.44
2023-05-13T14:18:16.662Z,14.58
2023-05-13T14:21:59.400Z,14.62
2023-05-13T14:25:43.466Z,14.53
2023-05-13T14:29:26.692Z,14.59
2023-05-13T14:33:09.447Z,14.83
2023-05-13T14:36:52.456Z,15.02
2023-05-13T14:40:35.670Z,15.09
2023-05-13T14:44:19.701Z,14.95
2023-05-13T14:48:02.439Z,14.90
2023-05-13T14:51:45.131Z,14.78
2023-05-13T14:55:27.863Z,14.74
2023-05-13T14:59:10.559Z,14.76
2023-05-13T15:02:55.320Z,14.77
2023-05-13T15:06:38.826Z,14.90
2023-05-13T15:10:21.659Z,15.13
2023-05-13T15:14:04.495Z,15.30
2023-05-13T15:17:47.263Z,15.72
2023-05-13T15:21:31.372Z,16.06
2023-05-13T15:25:14.136Z,16.40
2023-05-13T15:28:57.113Z,16.64
2023-05-13T15:32:40.886Z,16.52
2023-05-13T15:36:23.556Z,16.12
2023-05-13T15:40:09.527Z,15.99
2023-05-13T15:43:52.250Z,16.11
2023-05-13T15:47:35.059Z,16.21
2023-05-13T15:51:18.293Z,15.97
2023-05-13T15:55:00.943Z,15.66
2023-05-13T15:58:44.920Z,15.51
2023-05-13T16:02:29.573Z,15.41
2023-05-13T16:06:12.237Z,15.40
2023-05-13T16:09:54.908Z,15.53
2023-05-13T16:13:37.628Z,15.78
2023-05-13T16:17:21.647Z,16.28
2023-05-13T16:21:04.748Z,17.23
2023-05-13T16:24:47.421Z,17.86
2023-05-13T16:28:30.050Z,18.58
2023-05-13T16:32:13.233Z,18.67
2023-05-13T16:35:57.719Z,18.49
2023-05-13T16:39:41.148Z,18.26
2023-05-13T16:43:23.852Z,17.99
2023-05-13T16:47:08.490Z,17.76
2023-05-13T16:50:51.131Z,17.57
2023-05-13T16:54:35.334Z,17.52
2023-05-13T16:58:18.263Z,17.40
2023-05-13T17:02:01.409Z,17.24
2023-05-13T17:05:44.121Z,17.06
2023-05-13T17:09:26.903Z,16.77
2023-05-13T17:13:10.956Z,16.65
2023-05-13T17:16:53.674Z,16.28
2023-05-13T17:20:36.343Z,16.04
2023-05-13T17:24:22.264Z,15.85
2023-05-13T17:28:07.976Z,15.55
2023-05-13T17:31:52.342Z,15.34
2023-05-13T17:35:35.040Z,15.12
2023-05-13T17:39:17.776Z,14.87
2023-05-13T17:43:03.208Z,14.77
2023-05-13T17:46:45.952Z,14.69
2023-05-13T17:50:30.497Z,14.62
2023-05-13T17:54:14.061Z,14.54
2023-05-13T17:57:56.914Z,14.44
2023-05-13T18:01:39.656Z,14.38
2023-05-13T18:05:22.407Z,14.36
2023-05-13T18:09:06.530Z,14.35
2023-05-13T18:12:49.174Z,14.35
2023-05-13T18:16:31.958Z,14.33
2023-05-13T18:20:14.918Z,14.23
2023-05-13T18:23:57.700Z,14.08
2023-05-13T18:27:41.787Z,13.93
2023-05-13T18:31:24.490Z,13.79
2023-05-13T18:35:07.767Z,13.74
2023-05-13T18:38:50.418Z,13.78
2023-05-13T18:42:33.630Z,13.69
2023-05-13T18:46:18.027Z,13.66
2023-05-13T18:50:00.864Z,13.61
2023-05-13T18:53:43.528Z,13.50
2023-05-13T18:57:26.479Z,13.43
2023-05-13T19:01:09.487Z,13.50
2023-05-13T19:04:53.544Z,13.46
2023-05-13T19:08:36.298Z,13.51
2023-05-13T19:12:18.930Z,13.60
2023-05-13T19:16:01.979Z,13.66
2023-05-13T19:19:44.597Z,13.71
2023-05-13T19:23:28.600Z,13.80
2023-05-13T19:27:14.020Z,14.19
2023-05-13T19:30:56.739Z,14.36
2023-05-13T19:34:39.422Z,14.36
2023-05-13T19:38:22.220Z,14.36
2023-05-13T19:42:06.784Z,14.34
2023-05-13T19:45:49.455Z,14.22
2023-05-13T19:49:32.127Z,14.20
2023-05-13T19:53:14.805Z,14.15
2023-05-13T19:56:57.474Z,14.05
2023-05-13T20:00:43.808Z,13.98
2023-05-13T20:04:26.657Z,13.91
2023-05-13T20:08:09.443Z,13.76
2023-05-13T20:11:52.150Z,13.67
2023-05-13T20:15:34.863Z,13.57
2023-05-13T20:19:18.929Z,13.48
2023-05-13T20:23:01.608Z,13.40
2023-05-13T20:26:44.232Z,13.34
2023-05-13T20:30:26.901Z,13.29
2023-05-13T20:34:09.631Z,13.21
2023-05-13T20:37:53.615Z,13.18
2023-05-13T20:41:36.351Z,13.16
2023-05-13T20:45:19.292Z,13.12
2023-05-13T20:49:01.950Z,13.05
2023-05-13T20:52:47.247Z,13.02
2023-05-13T20:56:31.303Z,12.96
2023-05-13T21:00:15.083Z,12.90
2023-05-13T21:03:58.482Z,12.83
2023-05-13T21:07:41.212Z,12.78
2023-05-13T21:11:23.954Z,12.58
2023-05-13T21:15:09.600Z,12.43
2023-05-13T21:18:52.306Z,12.43
2023-05-13T21:22:35.073Z,12.58
2023-05-13T21:26:17.749Z,12.69
2023-05-13T21:30:00.384Z,12.71
2023-05-13T21:33:44.425Z,12.75
2023-05-13T21:37:27.303Z,12.80
2023-05-13T21:41:09.988Z,12.85
2023-05-13T21:44:52.684Z,12.83
2023-05-13T21:48:35.421Z,12.81
2023-05-13T21:52:19.460Z,12.82
2023-05-13T21:56:03.021Z,12.83
2023-05-13T21:59:45.788Z,12.86
2023-05-13T22:03:28.729Z,12.87
2023-05-13T22:07:11.499Z,12.90
2023-05-13T22:10:55.687Z,12.90
2023-05-13T22:14:38.425Z,12.93
2023-05-13T22:18:21.268Z,12.91
2023-05-13T22:22:04.103Z,12.90
2023-05-13T22:25:46.887Z,12.88
2023-05-13T22:29:31.264Z,12.85
2023-05-13T22:33:14.297Z,12.84
2023-05-13T22:36:57.022Z,12.83
2023-05-13T22:40:39.820Z,12.82
2023-05-13T22:44:22.762Z,12.82
2023-05-13T22:48:07.915Z,12.83
2023-05-13T22:51:50.726Z,12.82
2023-05-13T22:55:33.448Z,12.83
2023-05-13T22:59:16.181Z,12.81
2023-05-13T23:02:58.899Z,12.81
2023-05-13T23:06:43.302Z,12.80
2023-05-13T23:10:28.654Z,12.80
2023-05-13T23:14:11.333Z,12.79
2023-05-13T23:17:54.165Z,12.76
2023-05-13T23:21:37.472Z,12.75
2023-05-13T23:25:21.709Z,12.75
2023-05-13T23:29:04.615Z,12.73
2023-05-13T23:32:47.309Z,12.74
2023-05-13T23:36:30.078Z,12.73
2023-05-13T23:40:13.436Z,12.70
2023-05-13T23:43:57.552Z,12.61
2023-05-13T23:47:40.279Z,12.57
2023-05-13T23:51:22.984Z,12.57
2023-05-13T23:55:06.768Z,12.54
2023-05-13T23:58:49.477Z,12.54
